sensor_id;sensor_type;location;lat;lon;timestamp;temperature;humidity
66140;DHT22;52945;51.908;8.364;2023-07-13T00:01:54;22.30;51.30
66140;DHT22;52945;51.908;8.364;2023-07-13T00:04:55;22.30;51.30
66140;DHT22;52945;51.908;8.364;2023-07-13T00:07:56;22.20;51.10
66140;DHT22;52945;51.908;8.364;2023-07-13T00:10:56;22.20;51.50
66140;DHT22;52945;51.908;8.364;2023-07-13T00:13:57;22.20;51.60
66140;DHT22;52945;51.908;8.364;2023-07-13T00:16:57;22.10;51.70
66140;DHT22;52945;51.908;8.364;2023-07-13T00:20:00;22.00;52.00
66140;DHT22;52945;51.908;8.364;2023-07-13T00:23:01;22.00;52.00
66140;DHT22;52945;51.908;8.364;2023-07-13T00:26:03;21.90;52.10
66140;DHT22;52945;51.908;8.364;2023-07-13T00:29:05;22.00;51.90
66140;DHT22;52945;51.908;8.364;2023-07-13T00:32:08;21.80;51.90
66140;DHT22;52945;51.908;8.364;2023-07-13T00:35:10;21.90;52.10
66140;DHT22;52945;51.908;8.364;2023-07-13T00:38:11;21.80;52.50
66140;DHT22;52945;51.908;8.364;2023-07-13T00:41:12;21.80;52.20
66140;DHT22;52945;51.908;8.364;2023-07-13T00:44:14;21.80;52.40
66140;DHT22;52945;51.908;8.364;2023-07-13T00:47:15;21.70;52.60
66140;DHT22;52945;51.908;8.364;2023-07-13T00:50:16;21.70;52.60
66140;DHT22;52945;51.908;8.364;2023-07-13T00:53:19;21.70;52.30
66140;DHT22;52945;51.908;8.364;2023-07-13T00:56:20;21.70;52.60
66140;DHT22;52945;51.908;8.364;2023-07-13T00:59:21;21.70;52.40
66140;DHT22;52945;51.908;8.364;2023-07-13T01:02:23;21.70;52.60
66140;DHT22;52945;51.908;8.364;2023-07-13T01:05:25;21.70;52.80
66140;DHT22;52945;51.908;8.364;2023-07-13T01:08:26;21.70;52.90
66140;DHT22;52945;51.908;8.364;2023-07-13T01:11:26;21.70;52.90
66140;DHT22;52945;51.908;8.364;2023-07-13T01:14:27;21.70;52.80
66140;DHT22;52945;51.908;8.364;2023-07-13T01:17:28;21.70;53.00
66140;DHT22;52945;51.908;8.364;2023-07-13T01:20:29;21.60;53.30
66140;DHT22;52945;51.908;8.364;2023-07-13T01:23:31;21.50;53.50
66140;DHT22;52945;51.908;8.364;2023-07-13T01:26:32;21.40;53.70
66140;DHT22;52945;51.908;8.364;2023-07-13T01:29:34;21.40;53.90
66140;DHT22;52945;51.908;8.364;2023-07-13T01:32:35;21.30;54.20
66140;DHT22;52945;51.908;8.364;2023-07-13T01:35:37;21.30;54.50
66140;DHT22;52945;51.908;8.364;2023-07-13T01:38:37;21.30;55.00
66140;DHT22;52945;51.908;8.364;2023-07-13T01:41:38;21.30;54.70
66140;DHT22;52945;51.908;8.364;2023-07-13T01:44:38;21.40;54.80
66140;DHT22;52945;51.908;8.364;2023-07-13T01:47:39;21.40;54.70
66140;DHT22;52945;51.908;8.364;2023-07-13T01:50:40;21.40;55.00
66140;DHT22;52945;51.908;8.364;2023-07-13T01:53:40;21.40;54.90
66140;DHT22;52945;51.908;8.364;2023-07-13T01:56:41;21.40;55.00
66140;DHT22;52945;51.908;8.364;2023-07-13T01:59:42;21.40;54.80
66140;DHT22;52945;51.908;8.364;2023-07-13T02:02:42;21.40;54.70
66140;DHT22;52945;51.908;8.364;2023-07-13T02:05:44;21.50;54.80
66140;DHT22;52945;51.908;8.364;2023-07-13T02:08:45;21.40;54.90
66140;DHT22;52945;51.908;8.364;2023-07-13T02:11:45;21.40;54.90
66140;DHT22;52945;51.908;8.364;2023-07-13T02:14:46;21.50;55.00
66140;DHT22;52945;51.908;8.364;2023-07-13T02:17:46;21.30;54.90
66140;DHT22;52945;51.908;8.364;2023-07-13T02:20:47;21.30;55.00
66140;DHT22;52945;51.908;8.364;2023-07-13T02:23:48;21.30;55.10
66140;DHT22;52945;51.908;8.364;2023-07-13T02:26:49;21.30;55.00
66140;DHT22;52945;51.908;8.364;2023-07-13T02:29:50;21.30;55.30
66140;DHT22;52945;51.908;8.364;2023-07-13T02:32:51;21.30;55.30
66140;DHT22;52945;51.908;8.364;2023-07-13T02:35:52;21.20;55.40
66140;DHT22;52945;51.908;8.364;2023-07-13T02:38:52;21.20;55.60
66140;DHT22;52945;51.908;8.364;2023-07-13T02:41:53;21.10;55.70
66140;DHT22;52945;51.908;8.364;2023-07-13T02:44:54;21.10;55.60
66140;DHT22;52945;51.908;8.364;2023-07-13T02:47:54;21.00;55.40
66140;DHT22;52945;51.908;8.364;2023-07-13T02:50:55;21.10;55.60
66140;DHT22;52945;51.908;8.364;2023-07-13T02:53:56;21.00;55.60
66140;DHT22;52945;51.908;8.364;2023-07-13T02:56:56;21.00;55.80
66140;DHT22;52945;51.908;8.364;2023-07-13T02:59:57;21.00;55.80
66140;DHT22;52945;51.908;8.364;2023-07-13T03:02:57;20.90;55.90
66140;DHT22;52945;51.908;8.364;2023-07-13T03:06:00;20.90;56.20
66140;DHT22;52945;51.908;8.364;2023-07-13T03:09:02;20.80;56.50
66140;DHT22;52945;51.908;8.364;2023-07-13T03:12:04;20.80;56.80
66140;DHT22;52945;51.908;8.364;2023-07-13T03:15:05;20.70;56.70
66140;DHT22;52945;51.908;8.364;2023-07-13T03:18:06;20.70;56.70
66140;DHT22;52945;51.908;8.364;2023-07-13T03:21:06;20.70;56.90
66140;DHT22;52945;51.908;8.364;2023-07-13T03:24:07;20.70;56.80
66140;DHT22;52945;51.908;8.364;2023-07-13T03:27:08;20.70;56.80
66140;DHT22;52945;51.908;8.364;2023-07-13T03:30:09;20.60;56.90
66140;DHT22;52945;51.908;8.364;2023-07-13T03:33:10;20.60;56.90
66140;DHT22;52945;51.908;8.364;2023-07-13T03:36:17;20.50;57.00
66140;DHT22;52945;51.908;8.364;2023-07-13T03:39:21;20.50;57.00
66140;DHT22;52945;51.908;8.364;2023-07-13T03:42:21;20.40;56.70
66140;DHT22;52945;51.908;8.364;2023-07-13T03:45:22;20.30;56.40
66140;DHT22;52945;51.908;8.364;2023-07-13T03:48:22;20.30;56.20
66140;DHT22;52945;51.908;8.364;2023-07-13T03:51:23;20.20;56.10
66140;DHT22;52945;51.908;8.364;2023-07-13T03:54:24;20.20;55.70
66140;DHT22;52945;51.908;8.364;2023-07-13T03:57:25;20.20;55.50
66140;DHT22;52945;51.908;8.364;2023-07-13T04:00:26;20.10;55.10
66140;DHT22;52945;51.908;8.364;2023-07-13T04:03:27;20.10;54.90
66140;DHT22;52945;51.908;8.364;2023-07-13T04:06:29;20.00;54.90
66140;DHT22;52945;51.908;8.364;2023-07-13T04:09:30;20.00;55.00
66140;DHT22;52945;51.908;8.364;2023-07-13T04:12:30;19.90;54.90
66140;DHT22;52945;51.908;8.364;2023-07-13T04:15:31;20.00;54.70
66140;DHT22;52945;51.908;8.364;2023-07-13T04:18:32;19.90;54.70
66140;DHT22;52945;51.908;8.364;2023-07-13T04:21:33;19.90;54.80
66140;DHT22;52945;51.908;8.364;2023-07-13T04:24:33;19.90;55.00
66140;DHT22;52945;51.908;8.364;2023-07-13T04:27:34;19.90;55.20
66140;DHT22;52945;51.908;8.364;2023-07-13T04:30:34;19.90;54.80
66140;DHT22;52945;51.908;8.364;2023-07-13T04:33:35;19.90;54.60
66140;DHT22;52945;51.908;8.364;2023-07-13T04:36:35;19.90;54.60
66140;DHT22;52945;51.908;8.364;2023-07-13T04:39:37;19.90;54.50
66140;DHT22;52945;51.908;8.364;2023-07-13T04:42:38;19.90;54.60
66140;DHT22;52945;51.908;8.364;2023-07-13T04:45:39;19.90;54.60
66140;DHT22;52945;51.908;8.364;2023-07-13T04:48:40;19.90;54.50
66140;DHT22;52945;51.908;8.364;2023-07-13T04:51:40;19.90;54.30
66140;DHT22;52945;51.908;8.364;2023-07-13T04:54:41;19.90;54.50
66140;DHT22;52945;51.908;8.364;2023-07-13T04:57:42;19.90;54.50
66140;DHT22;52945;51.908;8.364;2023-07-13T05:00:43;19.90;54.50
66140;DHT22;52945;51.908;8.364;2023-07-13T05:03:43;19.90;54.40
66140;DHT22;52945;51.908;8.364;2023-07-13T05:06:44;19.80;54.40
66140;DHT22;52945;51.908;8.364;2023-07-13T05:09:44;19.80;54.50
66140;DHT22;52945;51.908;8.364;2023-07-13T05:12:45;19.90;54.70
66140;DHT22;52945;51.908;8.364;2023-07-13T05:15:47;19.80;54.80
66140;DHT22;52945;51.908;8.364;2023-07-13T05:18:47;19.80;55.00
66140;DHT22;52945;51.908;8.364;2023-07-13T05:21:48;19.80;55.10
66140;DHT22;52945;51.908;8.364;2023-07-13T05:24:48;19.90;55.10
66140;DHT22;52945;51.908;8.364;2023-07-13T05:27:49;19.80;55.40
66140;DHT22;52945;51.908;8.364;2023-07-13T05:30:50;19.90;55.10
66140;DHT22;52945;51.908;8.364;2023-07-13T05:33:51;19.90;55.00
66140;DHT22;52945;51.908;8.364;2023-07-13T05:36:51;19.90;55.20
66140;DHT22;52945;51.908;8.364;2023-07-13T05:39:53;19.90;55.10
66140;DHT22;52945;51.908;8.364;2023-07-13T05:42:53;19.90;55.30
66140;DHT22;52945;51.908;8.364;2023-07-13T05:45:55;19.80;55.30
66140;DHT22;52945;51.908;8.364;2023-07-13T05:48:56;19.90;55.40
66140;DHT22;52945;51.908;8.364;2023-07-13T05:51:57;19.90;55.50
66140;DHT22;52945;51.908;8.364;2023-07-13T05:54:58;19.90;55.60
66140;DHT22;52945;51.908;8.364;2023-07-13T05:57:59;20.00;55.60
66140;DHT22;52945;51.908;8.364;2023-07-13T06:01:09;20.00;55.70
66140;DHT22;52945;51.908;8.364;2023-07-13T06:04:10;19.90;55.90
66140;DHT22;52945;51.908;8.364;2023-07-13T06:07:11;20.00;56.10
66140;DHT22;52945;51.908;8.364;2023-07-13T06:10:12;20.00;56.40
66140;DHT22;52945;51.908;8.364;2023-07-13T06:13:12;20.10;56.30
66140;DHT22;52945;51.908;8.364;2023-07-13T06:16:14;20.10;56.40
66140;DHT22;52945;51.908;8.364;2023-07-13T06:19:14;20.10;56.60
66140;DHT22;52945;51.908;8.364;2023-07-13T06:22:15;20.10;56.30
66140;DHT22;52945;51.908;8.364;2023-07-13T06:25:16;20.20;56.50
66140;DHT22;52945;51.908;8.364;2023-07-13T06:28:18;20.20;56.70
66140;DHT22;52945;51.908;8.364;2023-07-13T06:31:18;20.20;56.70
66140;DHT22;52945;51.908;8.364;2023-07-13T06:34:19;20.20;56.90
66140;DHT22;52945;51.908;8.364;2023-07-13T06:37:20;20.20;57.10
66140;DHT22;52945;51.908;8.364;2023-07-13T06:40:20;20.30;57.60
66140;DHT22;52945;51.908;8.364;2023-07-13T06:43:21;20.30;57.40
66140;DHT22;52945;51.908;8.364;2023-07-13T06:46:22;20.30;57.60
66140;DHT22;52945;51.908;8.364;2023-07-13T06:49:22;20.30;57.80
66140;DHT22;52945;51.908;8.364;2023-07-13T06:52:23;20.40;57.40
66140;DHT22;52945;51.908;8.364;2023-07-13T06:55:23;20.40;57.50
66140;DHT22;52945;51.908;8.364;2023-07-13T06:58:24;20.40;57.80
66140;DHT22;52945;51.908;8.364;2023-07-13T07:01:25;20.40;58.10
66140;DHT22;52945;51.908;8.364;2023-07-13T07:04:26;20.40;58.10
66140;DHT22;52945;51.908;8.364;2023-07-13T07:07:26;20.50;57.90
66140;DHT22;52945;51.908;8.364;2023-07-13T07:10:29;20.60;57.60
66140;DHT22;52945;51.908;8.364;2023-07-13T07:13:29;20.60;57.60
66140;DHT22;52945;51.908;8.364;2023-07-13T07:16:30;20.60;57.70
66140;DHT22;52945;51.908;8.364;2023-07-13T07:19:31;20.70;57.80
66140;DHT22;52945;51.908;8.364;2023-07-13T07:22:32;20.70;57.80
66140;DHT22;52945;51.908;8.364;2023-07-13T07:25:33;20.70;57.60
66140;DHT22;52945;51.908;8.364;2023-07-13T07:28:37;20.80;57.70
66140;DHT22;52945;51.908;8.364;2023-07-13T07:31:38;20.80;57.70
66140;DHT22;52945;51.908;8.364;2023-07-13T07:34:38;20.80;57.70
66140;DHT22;52945;51.908;8.364;2023-07-13T07:37:39;20.90;57.90
66140;DHT22;52945;51.908;8.364;2023-07-13T07:40:40;21.00;57.40
66140;DHT22;52945;51.908;8.364;2023-07-13T07:43:41;21.10;57.30
66140;DHT22;52945;51.908;8.364;2023-07-13T07:46:41;21.10;57.20
66140;DHT22;52945;51.908;8.364;2023-07-13T07:49:42;21.10;57.00
66140;DHT22;52945;51.908;8.364;2023-07-13T07:52:43;21.10;56.90
66140;DHT22;52945;51.908;8.364;2023-07-13T07:55:44;21.20;57.30
66140;DHT22;52945;51.908;8.364;2023-07-13T07:58:45;21.40;56.80
66140;DHT22;52945;51.908;8.364;2023-07-13T08:01:46;21.50;56.90
66140;DHT22;52945;51.908;8.364;2023-07-13T08:04:48;21.60;56.20
66140;DHT22;52945;51.908;8.364;2023-07-13T08:07:48;21.70;56.30
66140;DHT22;52945;51.908;8.364;2023-07-13T08:10:49;21.70;55.80
66140;DHT22;52945;51.908;8.364;2023-07-13T08:13:50;21.70;55.80
66140;DHT22;52945;51.908;8.364;2023-07-13T08:16:50;21.70;55.30
66140;DHT22;52945;51.908;8.364;2023-07-13T08:19:51;21.80;55.40
66140;DHT22;52945;51.908;8.364;2023-07-13T08:22:51;22.00;54.70
66140;DHT22;52945;51.908;8.364;2023-07-13T08:25:53;22.00;54.70
66140;DHT22;52945;51.908;8.364;2023-07-13T08:28:53;22.10;54.60
66140;DHT22;52945;51.908;8.364;2023-07-13T08:31:54;22.00;53.90
66140;DHT22;52945;51.908;8.364;2023-07-13T08:34:54;22.00;53.90
66140;DHT22;52945;51.908;8.364;2023-07-13T08:37:55;22.10;54.10
66140;DHT22;52945;51.908;8.364;2023-07-13T08:40:56;22.20;54.00
66140;DHT22;52945;51.908;8.364;2023-07-13T08:43:59;22.20;53.50
66140;DHT22;52945;51.908;8.364;2023-07-13T08:47:00;22.20;53.20
66140;DHT22;52945;51.908;8.364;2023-07-13T08:50:02;22.20;52.80
66140;DHT22;52945;51.908;8.364;2023-07-13T08:53:04;22.20;53.00
66140;DHT22;52945;51.908;8.364;2023-07-13T08:56:11;22.30;52.60
66140;DHT22;52945;51.908;8.364;2023-07-13T08:59:18;22.30;52.60
66140;DHT22;52945;51.908;8.364;2023-07-13T09:02:33;22.60;52.90
66140;DHT22;52945;51.908;8.364;2023-07-13T09:05:40;22.70;52.80
66140;DHT22;52945;51.908;8.364;2023-07-13T09:09:17;22.90;51.50
66140;DHT22;52945;51.908;8.364;2023-07-13T09:15:41;23.20;50.00
66140;DHT22;52945;51.908;8.364;2023-07-13T09:18:49;23.30;50.00
66140;DHT22;52945;51.908;8.364;2023-07-13T09:21:52;23.50;48.70
66140;DHT22;52945;51.908;8.364;2023-07-13T09:25:11;23.50;47.90
66140;DHT22;52945;51.908;8.364;2023-07-13T09:31:16;23.50;47.80
66140;DHT22;52945;51.908;8.364;2023-07-13T09:34:18;23.50;47.80
66140;DHT22;52945;51.908;8.364;2023-07-13T09:37:27;23.60;48.00
66140;DHT22;52945;51.908;8.364;2023-07-13T09:44:11;23.50;48.40
66140;DHT22;52945;51.908;8.364;2023-07-13T09:47:23;23.70;48.40
66140;DHT22;52945;51.908;8.364;2023-07-13T09:50:24;23.90;47.30
66140;DHT22;52945;51.908;8.364;2023-07-13T09:53:30;24.10;47.50
66140;DHT22;52945;51.908;8.364;2023-07-13T09:56:31;24.40;45.90
66140;DHT22;52945;51.908;8.364;2023-07-13T09:59:35;24.70;45.60
66140;DHT22;52945;51.908;8.364;2023-07-13T10:02:36;24.90;45.20
66140;DHT22;52945;51.908;8.364;2023-07-13T10:05:42;25.20;44.70
66140;DHT22;52945;51.908;8.364;2023-07-13T10:08:45;25.40;44.20
66140;DHT22;52945;51.908;8.364;2023-07-13T10:11:47;25.70;42.90
66140;DHT22;52945;51.908;8.364;2023-07-13T10:14:56;25.80;43.10
66140;DHT22;52945;51.908;8.364;2023-07-13T10:17:57;25.90;42.70
66140;DHT22;52945;51.908;8.364;2023-07-13T10:24:24;25.70;42.10
66140;DHT22;52945;51.908;8.364;2023-07-13T10:27:34;25.60;42.40
66140;DHT22;52945;51.908;8.364;2023-07-13T10:30:39;25.70;41.90
66140;DHT22;52945;51.908;8.364;2023-07-13T10:33:42;25.80;42.50
66140;DHT22;52945;51.908;8.364;2023-07-13T10:36:47;25.80;41.50
66140;DHT22;52945;51.908;8.364;2023-07-13T10:39:50;25.80;42.00
66140;DHT22;52945;51.908;8.364;2023-07-13T10:42:54;25.80;41.50
66140;DHT22;52945;51.908;8.364;2023-07-13T10:45:56;25.90;41.40
66140;DHT22;52945;51.908;8.364;2023-07-13T10:49:01;25.80;42.00
66140;DHT22;52945;51.908;8.364;2023-07-13T10:52:03;26.00;41.20
66140;DHT22;52945;51.908;8.364;2023-07-13T10:55:04;25.90;40.20
66140;DHT22;52945;51.908;8.364;2023-07-13T10:58:14;25.90;41.10
66140;DHT22;52945;51.908;8.364;2023-07-13T11:01:16;25.90;41.40
66140;DHT22;52945;51.908;8.364;2023-07-13T11:04:19;26.00;41.30
66140;DHT22;52945;51.908;8.364;2023-07-13T11:07:26;25.90;41.60
66140;DHT22;52945;51.908;8.364;2023-07-13T11:10:48;25.70;41.40
66140;DHT22;52945;51.908;8.364;2023-07-13T11:16:51;25.70;42.50
66140;DHT22;52945;51.908;8.364;2023-07-13T11:19:52;25.70;42.50
66140;DHT22;52945;51.908;8.364;2023-07-13T11:29:48;25.80;42.40
66140;DHT22;52945;51.908;8.364;2023-07-13T11:32:51;25.80;42.70
66140;DHT22;52945;51.908;8.364;2023-07-13T11:36:29;25.80;42.60
66140;DHT22;52945;51.908;8.364;2023-07-13T11:39:36;25.70;42.50
66140;DHT22;52945;51.908;8.364;2023-07-13T11:42:38;25.80;42.10
66140;DHT22;52945;51.908;8.364;2023-07-13T11:45:39;25.70;42.10
66140;DHT22;52945;51.908;8.364;2023-07-13T11:48:39;25.80;42.30
66140;DHT22;52945;51.908;8.364;2023-07-13T11:51:40;25.80;41.40
66140;DHT22;52945;51.908;8.364;2023-07-13T11:54:47;25.70;41.00
66140;DHT22;52945;51.908;8.364;2023-07-13T11:57:56;25.80;41.80
66140;DHT22;52945;51.908;8.364;2023-07-13T12:00:59;25.90;40.00
66140;DHT22;52945;51.908;8.364;2023-07-13T12:04:03;25.80;39.80
66140;DHT22;52945;51.908;8.364;2023-07-13T12:07:05;25.90;38.90
66140;DHT22;52945;51.908;8.364;2023-07-13T12:13:12;25.80;39.80
66140;DHT22;52945;51.908;8.364;2023-07-13T12:16:37;25.70;40.20
66140;DHT22;52945;51.908;8.364;2023-07-13T12:19:37;25.70;40.70
66140;DHT22;52945;51.908;8.364;2023-07-13T12:22:38;25.90;40.90
66140;DHT22;52945;51.908;8.364;2023-07-13T12:25:38;26.00;40.70
66140;DHT22;52945;51.908;8.364;2023-07-13T12:31:47;25.90;40.70
66140;DHT22;52945;51.908;8.364;2023-07-13T12:38:13;25.90;40.50
66140;DHT22;52945;51.908;8.364;2023-07-13T12:41:15;25.80;40.60
66140;DHT22;52945;51.908;8.364;2023-07-13T12:44:18;25.80;39.70
66140;DHT22;52945;51.908;8.364;2023-07-13T12:47:20;25.80;39.30
66140;DHT22;52945;51.908;8.364;2023-07-13T12:50:23;25.80;39.90
66140;DHT22;52945;51.908;8.364;2023-07-13T12:53:31;26.00;40.00
66140;DHT22;52945;51.908;8.364;2023-07-13T12:56:33;26.20;38.00
66140;DHT22;52945;51.908;8.364;2023-07-13T12:59:34;26.30;38.60
66140;DHT22;52945;51.908;8.364;2023-07-13T13:02:36;26.60;37.50
66140;DHT22;52945;51.908;8.364;2023-07-13T13:05:37;26.70;36.90
66140;DHT22;52945;51.908;8.364;2023-07-13T13:08:38;26.80;36.90
66140;DHT22;52945;51.908;8.364;2023-07-13T13:11:41;27.00;36.50
66140;DHT22;52945;51.908;8.364;2023-07-13T13:14:42;27.10;35.50
66140;DHT22;52945;51.908;8.364;2023-07-13T13:17:43;27.20;35.70
66140;DHT22;52945;51.908;8.364;2023-07-13T13:20:44;27.30;35.60
66140;DHT22;52945;51.908;8.364;2023-07-13T13:23:45;27.20;35.70
66140;DHT22;52945;51.908;8.364;2023-07-13T13:26:46;27.10;36.20
66140;DHT22;52945;51.908;8.364;2023-07-13T13:29:49;27.20;36.30
66140;DHT22;52945;51.908;8.364;2023-07-13T13:32:52;27.30;36.30
66140;DHT22;52945;51.908;8.364;2023-07-13T13:35:52;27.40;36.20
66140;DHT22;52945;51.908;8.364;2023-07-13T13:38:53;27.50;36.10
66140;DHT22;52945;51.908;8.364;2023-07-13T13:41:54;27.30;36.50
66140;DHT22;52945;51.908;8.364;2023-07-13T13:44:54;27.10;37.00
66140;DHT22;52945;51.908;8.364;2023-07-13T13:47:57;26.80;37.30
66140;DHT22;52945;51.908;8.364;2023-07-13T13:50:58;26.70;37.50
66140;DHT22;52945;51.908;8.364;2023-07-13T13:53:59;26.70;39.60
66140;DHT22;52945;51.908;8.364;2023-07-13T13:57:02;26.70;40.40
66140;DHT22;52945;51.908;8.364;2023-07-13T14:00:03;26.60;40.90
66140;DHT22;52945;51.908;8.364;2023-07-13T14:03:04;26.60;41.10
66140;DHT22;52945;51.908;8.364;2023-07-13T14:06:08;26.60;41.60
66140;DHT22;52945;51.908;8.364;2023-07-13T14:09:14;26.50;42.10
66140;DHT22;52945;51.908;8.364;2023-07-13T14:12:15;26.10;43.50
66140;DHT22;52945;51.908;8.364;2023-07-13T14:15:25;25.70;52.10
66140;DHT22;52945;51.908;8.364;2023-07-13T14:18:26;25.50;53.90
66140;DHT22;52945;51.908;8.364;2023-07-13T14:21:28;25.20;54.90
66140;DHT22;52945;51.908;8.364;2023-07-13T14:24:29;25.00;57.00
66140;DHT22;52945;51.908;8.364;2023-07-13T14:27:30;24.70;56.90
66140;DHT22;52945;51.908;8.364;2023-07-13T14:30:30;24.60;56.70
66140;DHT22;52945;51.908;8.364;2023-07-13T14:33:31;24.60;59.50
66140;DHT22;52945;51.908;8.364;2023-07-13T14:36:39;24.50;57.70
66140;DHT22;52945;51.908;8.364;2023-07-13T14:39:43;24.50;58.00
66140;DHT22;52945;51.908;8.364;2023-07-13T14:42:44;24.50;57.70
66140;DHT22;52945;51.908;8.364;2023-07-13T14:45:47;24.40;56.60
66140;DHT22;52945;51.908;8.364;2023-07-13T14:48:49;24.20;56.40
66140;DHT22;52945;51.908;8.364;2023-07-13T14:51:50;24.00;55.50
66140;DHT22;52945;51.908;8.364;2023-07-13T14:54:51;23.70;54.20
66140;DHT22;52945;51.908;8.364;2023-07-13T14:57:52;23.50;53.50
66140;DHT22;52945;51.908;8.364;2023-07-13T15:00:52;23.20;54.00
66140;DHT22;52945;51.908;8.364;2023-07-13T15:03:55;22.80;55.90
66140;DHT22;52945;51.908;8.364;2023-07-13T15:07:01;22.70;57.60
66140;DHT22;52945;51.908;8.364;2023-07-13T15:13:20;22.40;59.90
66140;DHT22;52945;51.908;8.364;2023-07-13T15:16:23;22.20;60.50
66140;DHT22;52945;51.908;8.364;2023-07-13T15:19:25;22.00;61.40
66140;DHT22;52945;51.908;8.364;2023-07-13T15:22:25;22.10;62.20
66140;DHT22;52945;51.908;8.364;2023-07-13T15:25:28;22.00;63.50
66140;DHT22;52945;51.908;8.364;2023-07-13T15:28:28;22.00;62.90
66140;DHT22;52945;51.908;8.364;2023-07-13T15:31:29;21.90;64.30
66140;DHT22;52945;51.908;8.364;2023-07-13T15:34:32;21.90;63.20
66140;DHT22;52945;51.908;8.364;2023-07-13T15:37:32;21.90;63.60
66140;DHT22;52945;51.908;8.364;2023-07-13T15:40:33;21.90;63.30
66140;DHT22;52945;51.908;8.364;2023-07-13T15:43:34;21.90;63.20
66140;DHT22;52945;51.908;8.364;2023-07-13T15:46:34;21.90;63.80
66140;DHT22;52945;51.908;8.364;2023-07-13T15:49:35;21.80;63.80
66140;DHT22;52945;51.908;8.364;2023-07-13T15:52:36;21.90;64.30
66140;DHT22;52945;51.908;8.364;2023-07-13T15:55:38;22.00;64.20
66140;DHT22;52945;51.908;8.364;2023-07-13T15:58:39;21.90;62.40
66140;DHT22;52945;51.908;8.364;2023-07-13T16:01:40;21.80;61.40
66140;DHT22;52945;51.908;8.364;2023-07-13T16:04:42;21.80;63.10
66140;DHT22;52945;51.908;8.364;2023-07-13T16:07:47;21.80;63.40
66140;DHT22;52945;51.908;8.364;2023-07-13T16:10:48;21.80;63.10
66140;DHT22;52945;51.908;8.364;2023-07-13T16:13:49;21.90;62.60
66140;DHT22;52945;51.908;8.364;2023-07-13T16:16:55;22.10;62.70
66140;DHT22;52945;51.908;8.364;2023-07-13T16:19:55;22.40;62.40
66140;DHT22;52945;51.908;8.364;2023-07-13T16:22:56;22.70;61.10
66140;DHT22;52945;51.908;8.364;2023-07-13T16:25:57;22.80;58.90
66140;DHT22;52945;51.908;8.364;2023-07-13T16:28:58;22.90;57.70
66140;DHT22;52945;51.908;8.364;2023-07-13T16:32:03;23.00;56.20
66140;DHT22;52945;51.908;8.364;2023-07-13T16:35:04;23.10;55.70
66140;DHT22;52945;51.908;8.364;2023-07-13T16:38:14;23.00;56.20
66140;DHT22;52945;51.908;8.364;2023-07-13T16:41:15;23.00;56.70
66140;DHT22;52945;51.908;8.364;2023-07-13T16:44:19;23.10;56.70
66140;DHT22;52945;51.908;8.364;2023-07-13T16:47:22;23.00;55.90
66140;DHT22;52945;51.908;8.364;2023-07-13T16:50:26;23.10;56.40
66140;DHT22;52945;51.908;8.364;2023-07-13T16:53:28;23.10;56.40
66140;DHT22;52945;51.908;8.364;2023-07-13T16:56:29;23.10;55.60
66140;DHT22;52945;51.908;8.364;2023-07-13T16:59:33;23.20;54.90
66140;DHT22;52945;51.908;8.364;2023-07-13T17:02:36;23.30;54.10
66140;DHT22;52945;51.908;8.364;2023-07-13T17:05:40;23.30;53.10
66140;DHT22;52945;51.908;8.364;2023-07-13T17:08:42;23.30;53.00
66140;DHT22;52945;51.908;8.364;2023-07-13T17:11:43;23.40;53.90
66140;DHT22;52945;51.908;8.364;2023-07-13T17:14:45;23.40;53.50
66140;DHT22;52945;51.908;8.364;2023-07-13T17:17:49;23.40;53.20
66140;DHT22;52945;51.908;8.364;2023-07-13T17:20:51;23.30;53.30
66140;DHT22;52945;51.908;8.364;2023-07-13T17:23:52;23.30;53.10
66140;DHT22;52945;51.908;8.364;2023-07-13T17:26:53;23.30;53.70
66140;DHT22;52945;51.908;8.364;2023-07-13T17:29:55;23.30;53.60
66140;DHT22;52945;51.908;8.364;2023-07-13T17:32:57;23.20;54.20
66140;DHT22;52945;51.908;8.364;2023-07-13T17:35:58;23.20;54.70
66140;DHT22;52945;51.908;8.364;2023-07-13T17:38:59;23.20;54.70
66140;DHT22;52945;51.908;8.364;2023-07-13T17:42:00;23.10;55.00
66140;DHT22;52945;51.908;8.364;2023-07-13T17:45:01;23.10;55.40
66140;DHT22;52945;51.908;8.364;2023-07-13T17:48:01;23.10;55.50
66140;DHT22;52945;51.908;8.364;2023-07-13T17:51:09;23.10;56.10
66140;DHT22;52945;51.908;8.364;2023-07-13T17:54:13;23.00;56.20
66140;DHT22;52945;51.908;8.364;2023-07-13T17:57:14;23.00;56.90
66140;DHT22;52945;51.908;8.364;2023-07-13T18:00:21;23.00;58.00
66140;DHT22;52945;51.908;8.364;2023-07-13T18:03:28;22.90;58.30
66140;DHT22;52945;51.908;8.364;2023-07-13T18:06:37;22.90;58.70
66140;DHT22;52945;51.908;8.364;2023-07-13T18:09:38;22.80;59.20
66140;DHT22;52945;51.908;8.364;2023-07-13T18:12:40;22.80;60.20
66140;DHT22;52945;51.908;8.364;2023-07-13T18:15:42;22.70;61.30
66140;DHT22;52945;51.908;8.364;2023-07-13T18:18:43;22.70;62.10
66140;DHT22;52945;51.908;8.364;2023-07-13T18:21:44;22.60;62.70
66140;DHT22;52945;51.908;8.364;2023-07-13T18:24:45;22.50;62.90
66140;DHT22;52945;51.908;8.364;2023-07-13T18:27:47;22.40;63.00
66140;DHT22;52945;51.908;8.364;2023-07-13T18:30:53;22.40;63.20
66140;DHT22;52945;51.908;8.364;2023-07-13T18:33:55;22.30;63.30
66140;DHT22;52945;51.908;8.364;2023-07-13T18:36:57;22.20;63.50
66140;DHT22;52945;51.908;8.364;2023-07-13T18:39:59;22.20;64.10
66140;DHT22;52945;51.908;8.364;2023-07-13T18:42:59;22.20;64.30
66140;DHT22;52945;51.908;8.364;2023-07-13T18:46:03;22.10;64.30
66140;DHT22;52945;51.908;8.364;2023-07-13T18:49:08;22.10;64.10
66140;DHT22;52945;51.908;8.364;2023-07-13T18:52:19;22.00;63.90
66140;DHT22;52945;51.908;8.364;2023-07-13T18:55:23;22.00;64.00
66140;DHT22;52945;51.908;8.364;2023-07-13T18:58:24;22.00;65.80
66140;DHT22;52945;51.908;8.364;2023-07-13T19:01:32;21.80;66.30
66140;DHT22;52945;51.908;8.364;2023-07-13T19:04:35;21.70;66.30
66140;DHT22;52945;51.908;8.364;2023-07-13T19:07:36;21.70;66.00
66140;DHT22;52945;51.908;8.364;2023-07-13T19:10:36;21.70;65.10
66140;DHT22;52945;51.908;8.364;2023-07-13T19:13:38;21.70;65.80
66140;DHT22;52945;51.908;8.364;2023-07-13T19:16:38;21.70;65.60
66140;DHT22;52945;51.908;8.364;2023-07-13T19:19:40;21.70;65.80
66140;DHT22;52945;51.908;8.364;2023-07-13T19:22:41;21.70;65.70
66140;DHT22;52945;51.908;8.364;2023-07-13T19:25:41;21.60;66.10
66140;DHT22;52945;51.908;8.364;2023-07-13T19:28:43;21.60;66.00
66140;DHT22;52945;51.908;8.364;2023-07-13T19:31:43;21.60;65.70
66140;DHT22;52945;51.908;8.364;2023-07-13T19:34:45;21.50;66.10
66140;DHT22;52945;51.908;8.364;2023-07-13T19:37:46;21.50;65.60
66140;DHT22;52945;51.908;8.364;2023-07-13T19:40:47;21.50;65.60
66140;DHT22;52945;51.908;8.364;2023-07-13T19:43:51;21.50;65.30
66140;DHT22;52945;51.908;8.364;2023-07-13T19:46:52;21.50;65.10